createdAt,value
2022-12-15T00:01:04.356Z,-4.66
2022-12-15T00:03:45.436Z,-4.62
2022-12-15T00:06:26.833Z,-4.59
2022-12-15T00:09:11.235Z,-4.55
2022-12-15T00:11:55.346Z,-4.52
2022-12-15T00:14:36.012Z,-4.51
2022-12-15T00:17:17.658Z,-4.54
2022-12-15T00:19:58.840Z,-4.57
2022-12-15T00:22:39.816Z,-4.61
2022-12-15T00:25:21.022Z,-4.67
2022-12-15T00:28:02.305Z,-4.69
2022-12-15T00:30:43.429Z,-4.69
2022-12-15T00:33:28.250Z,-4.66
2022-12-15T00:36:09.501Z,-4.64
2022-12-15T00:38:42.838Z,-4.63
2022-12-15T00:41:05.669Z,-4.64
2022-12-15T00:43:29.026Z,-4.66
2022-12-15T00:46:10.721Z,-4.63
2022-12-15T00:48:33.287Z,-4.59
2022-12-15T00:50:55.944Z,-4.57
2022-12-15T00:53:37.268Z,-4.52
2022-12-15T00:56:18.193Z,-4.48
2022-12-15T00:58:59.424Z,-4.46
2022-12-15T01:01:40.433Z,-4.47
2022-12-15T01:04:21.462Z,-4.50
2022-12-15T01:07:02.886Z,-4.55
2022-12-15T01:09:43.923Z,-4.58
2022-12-15T01:12:24.945Z,-4.60
2022-12-15T01:15:06.099Z,-4.58
2022-12-15T01:17:47.355Z,-4.55
2022-12-15T01:20:14.863Z,-4.53
2022-12-15T01:22:37.645Z,-4.49
2022-12-15T01:25:00.261Z,-4.41
2022-12-15T01:27:22.818Z,-4.34
2022-12-15T01:29:45.482Z,-4.25
2022-12-15T01:32:08.717Z,-4.16
2022-12-15T01:34:31.347Z,-4.12
2022-12-15T01:36:54.139Z,-4.11
2022-12-15T01:39:16.773Z,-4.10
2022-12-15T01:41:39.483Z,-4.13
2022-12-15T01:44:15.132Z,-4.14
2022-12-15T01:46:37.707Z,-4.13
2022-12-15T01:49:03.121Z,-4.15
2022-12-15T01:51:28.568Z,-4.17
2022-12-15T01:53:53.768Z,-4.22
2022-12-15T01:56:16.463Z,-4.28
2022-12-15T01:58:42.167Z,-4.32
2022-12-15T02:01:05.234Z,-4.36
2022-12-15T02:03:28.303Z,-4.37
2022-12-15T02:05:52.223Z,-4.38
2022-12-15T02:08:14.814Z,-4.38
2022-12-15T02:10:42.990Z,-4.37
2022-12-15T02:13:11.398Z,-4.35
2022-12-15T02:15:37.071Z,-4.34
2022-12-15T02:18:03.993Z,-4.32
2022-12-15T02:20:39.985Z,-4.32
2022-12-15T02:23:31.026Z,-4.31
2022-12-15T02:26:04.916Z,-4.31
2022-12-15T02:28:32.480Z,-4.30
2022-12-15T02:31:11.781Z,-4.29
2022-12-15T02:33:37.023Z,-4.31
2022-12-15T02:36:03.783Z,-4.30
2022-12-15T02:38:30.803Z,-4.30
2022-12-15T02:40:57.860Z,-4.29
2022-12-15T02:43:20.519Z,-4.25
2022-12-15T02:45:49.340Z,-4.21
2022-12-15T02:48:21.791Z,-4.15
2022-12-15T02:50:51.382Z,-4.08
2022-12-15T02:53:20.179Z,-4.01
2022-12-15T02:55:50.420Z,-3.94
2022-12-15T02:58:14.888Z,-3.87
2022-12-15T03:00:39.286Z,-3.80
2022-12-15T03:03:02.061Z,-3.73
2022-12-15T03:05:25.693Z,-3.66
2022-12-15T03:07:49.942Z,-3.62
2022-12-15T03:10:13.830Z,-3.62
2022-12-15T03:12:36.362Z,-3.63
2022-12-15T03:14:59.017Z,-3.64
2022-12-15T03:17:21.814Z,-3.63
2022-12-15T03:19:44.945Z,-3.62
2022-12-15T03:22:07.548Z,-3.60
2022-12-15T03:24:30.154Z,-3.58
2022-12-15T03:26:52.715Z,-3.57
2022-12-15T03:29:15.350Z,-3.56
2022-12-15T03:31:37.913Z,-3.57
2022-12-15T03:34:01.402Z,-3.55
2022-12-15T03:36:24.407Z,-3.55
2022-12-15T03:38:47.050Z,-3.54
2022-12-15T03:41:09.632Z,-3.53
2022-12-15T03:43:32.386Z,-3.56
2022-12-15T03:45:55.279Z,-3.53
2022-12-15T03:48:18.080Z,-3.51
2022-12-15T03:50:40.623Z,-3.50
2022-12-15T03:53:04.096Z,-3.50
2022-12-15T03:55:28.171Z,-3.50
2022-12-15T03:57:51.575Z,-3.50
2022-12-15T04:00:15.129Z,-3.50
2022-12-15T04:02:37.833Z,-3.51
2022-12-15T04:05:00.552Z,-3.52
2022-12-15T04:07:23.042Z,-3.55
2022-12-15T04:09:45.782Z,-3.57
2022-12-15T04:12:10.494Z,-3.60
2022-12-15T04:14:33.450Z,-3.61
2022-12-15T04:16:56.491Z,-3.61
2022-12-15T04:19:37.793Z,-3.60
2022-12-15T04:22:03.328Z,-3.61
2022-12-15T04:24:44.825Z,-3.62
2022-12-15T04:27:25.734Z,-3.64
2022-12-15T04:30:06.562Z,-3.64
2022-12-15T04:32:49.946Z,-3.63
2022-12-15T04:35:31.440Z,-3.60
2022-12-15T04:38:12.644Z,-3.58
2022-12-15T04:40:53.598Z,-3.57
2022-12-15T04:43:34.818Z,-3.56
2022-12-15T04:46:16.788Z,-3.55
2022-12-15T04:48:58.067Z,-3.53
2022-12-15T04:51:38.908Z,-3.51
2022-12-15T04:54:20.117Z,-3.50
2022-12-15T04:57:01.130Z,-3.49
2022-12-15T04:59:42.092Z,-3.49
2022-12-15T05:02:23.187Z,-3.50
2022-12-15T05:05:04.965Z,-3.53
2022-12-15T05:07:46.176Z,-3.55
2022-12-15T05:10:27.571Z,-3.57
2022-12-15T05:13:08.730Z,-3.59
2022-12-15T05:15:50.064Z,-3.61
2022-12-15T05:18:31.341Z,-3.64
2022-12-15T05:21:12.257Z,-3.64
2022-12-15T05:23:53.534Z,-3.67
2022-12-15T05:26:34.792Z,-3.68
2022-12-15T05:29:16.084Z,-3.70
2022-12-15T05:31:51.190Z,-3.73
2022-12-15T05:34:13.971Z,-3.74
2022-12-15T05:36:36.508Z,-3.74
2022-12-15T05:38:59.099Z,-3.70
2022-12-15T05:41:21.956Z,-3.66
2022-12-15T05:43:45.024Z,-3.60
2022-12-15T05:46:07.784Z,-3.55
2022-12-15T05:48:30.391Z,-3.52
2022-12-15T05:50:52.980Z,-3.49
2022-12-15T05:53:15.599Z,-3.42
2022-12-15T05:55:38.379Z,-3.33
2022-12-15T05:58:01.208Z,-3.25
2022-12-15T06:00:23.901Z,-3.19
2022-12-15T06:02:46.532Z,-3.19
2022-12-15T06:05:09.585Z,-3.24
2022-12-15T06:07:33.263Z,-3.27
2022-12-15T06:09:55.766Z,-3.32
2022-12-15T06:12:18.413Z,-3.39
2022-12-15T06:14:41.047Z,-3.43
2022-12-15T06:17:03.757Z,-3.48
2022-12-15T06:19:26.296Z,-3.55
2022-12-15T06:21:49.375Z,-3.61
2022-12-15T06:24:12.699Z,-3.64
2022-12-15T06:26:36.305Z,-3.68
2022-12-15T06:29:01.893Z,-3.73
2022-12-15T06:31:25.278Z,-3.76
2022-12-15T06:33:48.524Z,-3.79
2022-12-15T06:36:11.886Z,-3.83
2022-12-15T06:38:34.522Z,-3.88
2022-12-15T06:40:57.248Z,-3.93
2022-12-15T06:43:19.924Z,-3.96
2022-12-15T06:45:48.482Z,-3.99
2022-12-15T06:48:12.717Z,-4.04
2022-12-15T06:50:35.281Z,-4.07
2022-12-15T06:53:00.154Z,-4.10
2022-12-15T06:55:22.781Z,-4.12
2022-12-15T06:57:46.791Z,-4.13
2022-12-15T07:00:10.464Z,-4.13
2022-12-15T07:02:33.881Z,-4.14
2022-12-15T07:04:57.004Z,-4.16
2022-12-15T07:07:20.009Z,-4.15
2022-12-15T07:09:42.673Z,-4.19
2022-12-15T07:12:07.026Z,-4.19
2022-12-15T07:14:29.556Z,-4.20
2022-12-15T07:16:52.182Z,-4.22
2022-12-15T07:19:14.938Z,-4.26
2022-12-15T07:21:37.772Z,-4.29
2022-12-15T07:24:01.576Z,-4.28
2022-12-15T07:26:24.917Z,-4.26
2022-12-15T07:28:47.455Z,-4.23
2022-12-15T07:31:11.022Z,-4.21
2022-12-15T07:33:34.865Z,-4.17
2022-12-15T07:35:57.671Z,-4.13
2022-12-15T07:38:20.396Z,-4.10
2022-12-15T07:40:43.117Z,-4.07
2022-12-15T07:43:05.834Z,-4.03
2022-12-15T07:45:28.469Z,-3.99
2022-12-15T07:47:51.325Z,-3.95
2022-12-15T07:50:13.939Z,-3.89
2022-12-15T07:52:36.476Z,-3.85
2022-12-15T07:54:58.982Z,-3.82
2022-12-15T07:57:21.855Z,-3.79
2022-12-15T07:59:46.960Z,-3.78
2022-12-15T08:02:23.251Z,-3.76
2022-12-15T08:04:47.100Z,-3.76
2022-12-15T08:07:10.414Z,-3.76
2022-12-15T08:09:33.406Z,-3.75
2022-12-15T08:11:56.167Z,-3.77
2022-12-15T08:14:19.425Z,-3.77
2022-12-15T08:16:42.634Z,-3.75
2022-12-15T08:19:06.066Z,-3.74
2022-12-15T08:21:33.435Z,-3.73
2022-12-15T08:23:56.232Z,-3.77
2022-12-15T08:26:22.599Z,-3.79
2022-12-15T08:28:47.881Z,-3.80
2022-12-15T08:31:11.943Z,-3.80
2022-12-15T08:33:35.438Z,-3.81
2022-12-15T08:35:59.184Z,-3.82
2022-12-15T08:38:21.969Z,-3.84
2022-12-15T08:40:45.010Z,-3.86
2022-12-15T08:43:07.516Z,-3.88
2022-12-15T08:45:30.374Z,-3.88
2022-12-15T08:47:53.253Z,-3.89
2022-12-15T08:50:16.006Z,-3.88
2022-12-15T08:52:42.442Z,-3.88
2022-12-15T08:55:22.391Z,-3.88
2022-12-15T08:57:45.573Z,-3.87
2022-12-15T09:00:10.041Z,-3.85
2022-12-15T09:02:32.898Z,-3.88
2022-12-15T09:04:55.655Z,-3.83
2022-12-15T09:07:18.203Z,-3.79
2022-12-15T09:09:40.849Z,-3.73
2022-12-15T09:12:03.865Z,-3.67
2022-12-15T09:14:29.504Z,-3.58
2022-12-15T09:16:52.536Z,-3.52
2022-12-15T09:19:15.939Z,-3.47
2022-12-15T09:21:39.149Z,-3.44
2022-12-15T09:24:02.788Z,-3.42
2022-12-15T09:26:26.627Z,-3.40
2022-12-15T09:28:50.146Z,-3.35
2022-12-15T09:31:14.470Z,-3.34
2022-12-15T09:33:38.112Z,-3.36
2022-12-15T09:36:00.783Z,-3.32
2022-12-15T09:38:23.380Z,-3.27
2022-12-15T09:40:46.298Z,-3.26
2022-12-15T09:43:33.806Z,-3.28
2022-12-15T09:46:02.507Z,-3.28
2022-12-15T09:48:29.995Z,-3.28
2022-12-15T09:50:53.805Z,-3.31
2022-12-15T09:53:45.669Z,-3.35
2022-12-15T09:56:03.562Z,-3.39
2022-12-15T09:58:33.147Z,-3.41
2022-12-15T10:01:00.838Z,-3.44
2022-12-15T10:03:38.777Z,-3.46
2022-12-15T10:06:16.267Z,-3.50
2022-12-15T10:08:52.814Z,-3.52
2022-12-15T10:11:19.647Z,-3.53
2022-12-15T10:13:44.530Z,-3.55
2022-12-15T10:16:16.000Z,-3.55
2022-12-15T10:18:41.013Z,-3.56
2022-12-15T10:21:03.852Z,-3.57
2022-12-15T10:23:26.584Z,-3.59
2022-12-15T10:25:53.912Z,-3.60
2022-12-15T10:28:25.645Z,-3.63
2022-12-15T10:30:50.867Z,-3.65
2022-12-15T10:33:18.622Z,-3.65
2022-12-15T10:35:43.225Z,-3.69
2022-12-15T10:38:08.356Z,-3.72
2022-12-15T10:40:45.019Z,-3.70
2022-12-15T10:43:15.089Z,-3.65
2022-12-15T10:45:38.786Z,-3.60
2022-12-15T10:48:03.323Z,-3.57
2022-12-15T10:50:27.013Z,-3.53
2022-12-15T10:52:50.212Z,-3.49
2022-12-15T10:55:34.208Z,-3.45
2022-12-15T10:57:58.846Z,-3.39
2022-12-15T11:00:27.246Z,-3.36
2022-12-15T11:02:50.301Z,-3.34
2022-12-15T11:05:16.267Z,-3.33
2022-12-15T11:07:40.746Z,-3.36
2022-12-15T11:10:13.464Z,-3.39
2022-12-15T11:12:52.273Z,-3.43
2022-12-15T11:15:33.505Z,-3.47
2022-12-15T11:17:58.937Z,-3.52
2022-12-15T11:20:24.810Z,-3.57
2022-12-15T11:22:50.837Z,-3.65
2022-12-15T11:25:24.791Z,-3.70
2022-12-15T11:27:48.824Z,-3.74
2022-12-15T11:30:13.077Z,-3.78
2022-12-15T11:32:37.540Z,-3.83
2022-12-15T11:35:00.148Z,-3.89
2022-12-15T11:37:46.144Z,-3.94
2022-12-15T11:40:24.020Z,-3.98
2022-12-15T11:42:53.462Z,-3.99
2022-12-15T11:45:20.678Z,-4.02
2022-12-15T11:47:46.001Z,-4.06
2022-12-15T11:50:24.210Z,-4.09
2022-12-15T11:53:01.256Z,-4.11
2022-12-15T11:55:35.904Z,-4.13
2022-12-15T11:58:08.907Z,-4.14
2022-12-15T12:00:35.060Z,-4.15
2022-12-15T12:03:17.849Z,-4.18
2022-12-15T12:05:51.050Z,-4.21
2022-12-15T12:08:22.507Z,-4.22
2022-12-15T12:10:49.328Z,-4.22
2022-12-15T12:13:16.057Z,-4.20
2022-12-15T12:15:45.191Z,-4.16
2022-12-15T12:18:12.440Z,-4.16
2022-12-15T12:20:39.977Z,-4.16
2022-12-15T12:23:04.531Z,-4.17
2022-12-15T12:25:29.273Z,-4.17
2022-12-15T12:27:54.632Z,-4.17
2022-12-15T12:30:18.545Z,-4.17
2022-12-15T12:32:46.920Z,-4.17
2022-12-15T12:35:31.601Z,-4.13
2022-12-15T12:40:52.101Z,-4.10
2022-12-15T12:43:22.618Z,-4.10
2022-12-15T12:45:50.237Z,-4.08
2022-12-15T12:48:15.011Z,-4.07
2022-12-15T12:50:37.557Z,-4.06
2022-12-15T12:53:01.867Z,-4.03
2022-12-15T12:55:26.494Z,-4.01
2022-12-15T12:57:50.085Z,-3.97
2022-12-15T13:00:18.302Z,-3.95
2022-12-15T13:03:05.231Z,-3.90
2022-12-15T13:05:30.702Z,-3.86
2022-12-15T13:07:57.095Z,-3.85
2022-12-15T13:10:22.729Z,-3.84
2022-12-15T13:12:52.018Z,-3.85
2022-12-15T13:15:24.627Z,-3.83
2022-12-15T13:17:50.639Z,-3.82
2022-12-15T13:20:23.616Z,-3.79
2022-12-15T13:22:46.665Z,-3.79
2022-12-15T13:25:33.690Z,-3.81
2022-12-15T13:27:58.818Z,-3.83
2022-12-15T13:30:21.587Z,-3.85
2022-12-15T13:32:45.082Z,-3.82
2022-12-15T13:35:22.401Z,-3.80
2022-12-15T13:37:49.035Z,-3.77
2022-12-15T13:40:25.573Z,-3.77
2022-12-15T13:42:58.266Z,-3.77
2022-12-15T13:45:30.576Z,-3.76
2022-12-15T13:47:54.924Z,-3.77
2022-12-15T13:50:20.440Z,-3.76
2022-12-15T13:55:33.951Z,-3.77
2022-12-15T13:57:58.485Z,-3.77
2022-12-15T14:00:21.416Z,-3.75
2022-12-15T14:02:44.732Z,-3.75
2022-12-15T14:05:11.772Z,-3.72
2022-12-15T14:07:35.159Z,-3.72
2022-12-15T14:09:57.768Z,-3.73
2022-12-15T14:12:21.823Z,-3.78
2022-12-15T14:14:47.300Z,-3.83
2022-12-15T14:17:14.793Z,-3.86
2022-12-15T14:19:38.909Z,-3.91
2022-12-15T14:22:01.531Z,-4.00
2022-12-15T14:24:38.454Z,-4.05
2022-12-15T14:27:02.210Z,-4.11
2022-12-15T14:29:25.350Z,-4.15
2022-12-15T14:31:49.801Z,-4.19
2022-12-15T14:34:15.308Z,-4.22
2022-12-15T14:36:39.491Z,-4.25
2022-12-15T14:39:04.681Z,-4.31
2022-12-15T14:41:29.522Z,-4.35
2022-12-15T14:44:31.379Z,-4.37
2022-12-15T14:46:38.304Z,-4.39
2022-12-15T14:49:03.207Z,-4.40
2022-12-15T14:51:27.734Z,-4.42
2022-12-15T14:56:34.537Z,-4.49
2022-12-15T14:58:59.549Z,-4.53
2022-12-15T15:01:24.707Z,-4.54
2022-12-15T15:03:05.023Z,-4.12
2022-12-15T15:03:14.540Z,-4.46
2022-12-15T15:03:55.797Z,-4.57
2022-12-15T15:06:29.391Z,-4.58
2022-12-15T15:08:52.749Z,-4.57
2022-12-15T15:11:24.497Z,-4.56
2022-12-15T15:13:47.553Z,-4.58
2022-12-15T15:16:15.072Z,-4.62
2022-12-15T15:18:37.676Z,-4.66
2022-12-15T15:21:03.038Z,-4.70
2022-12-15T15:23:25.786Z,-4.72
2022-12-15T15:25:53.252Z,-4.73
2022-12-15T15:28:21.430Z,-4.77
2022-12-15T15:30:46.666Z,-4.80
2022-12-15T15:33:12.930Z,-4.82
2022-12-15T15:35:35.766Z,-4.83
2022-12-15T15:38:02.111Z,-4.82
2022-12-15T15:40:24.671Z,-4.81
2022-12-15T15:42:48.487Z,-4.79
2022-12-15T15:45:13.884Z,-4.79
2022-12-15T15:47:36.651Z,-4.77
2022-12-15T15:49:59.724Z,-4.74
2022-12-15T15:52:22.629Z,-4.71
2022-12-15T15:54:45.586Z,-4.71
2022-12-15T15:57:11.877Z,-4.69
2022-12-15T15:59:34.461Z,-4.66
2022-12-15T16:01:58.531Z,-4.68
2022-12-15T16:04:21.419Z,-4.66
2022-12-15T16:06:47.565Z,-4.64
2022-12-15T16:09:12.290Z,-4.64
2022-12-15T16:11:35.900Z,-4.65
2022-12-15T16:13:58.564Z,-4.64
2022-12-15T16:16:21.943Z,-4.64
2022-12-15T16:18:45.675Z,-4.62
2022-12-15T16:21:10.121Z,-4.59
2022-12-15T16:23:33.012Z,-4.55
2022-12-15T16:25:57.120Z,-4.56
2022-12-15T16:28:20.449Z,-4.54
2022-12-15T16:30:43.142Z,-4.51
2022-12-15T16:33:06.039Z,-4.47
2022-12-15T16:35:28.576Z,-4.46
2022-12-15T16:37:51.502Z,-4.43
2022-12-15T16:40:15.975Z,-4.40
2022-12-15T16:42:38.523Z,-4.34
2022-12-15T16:45:02.230Z,-4.26
2022-12-15T16:47:33.719Z,-4.19
2022-12-15T16:49:56.287Z,-4.14
2022-12-15T16:52:20.219Z,-4.11
2022-12-15T16:54:45.082Z,-4.05
2022-12-15T16:57:10.969Z,-3.99
2022-12-15T16:59:34.958Z,-3.93
2022-12-15T17:01:58.599Z,-3.87
2022-12-15T17:04:21.209Z,-3.84
2022-12-15T17:06:43.868Z,-3.86
2022-12-15T17:09:08.138Z,-3.88
2022-12-15T17:11:31.563Z,-3.89
2022-12-15T17:13:56.476Z,-3.91
2022-12-15T17:16:19.715Z,-3.94
2022-12-15T17:18:42.880Z,-3.96
2022-12-15T17:21:10.657Z,-3.96
2022-12-15T17:23:34.793Z,-3.99
2022-12-15T17:28:40.769Z,-4.01
2022-12-15T17:31:03.763Z,-4.04
2022-12-15T17:33:27.130Z,-4.06
2022-12-15T17:35:53.331Z,-4.08
2022-12-15T17:38:17.373Z,-4.09
2022-12-15T17:40:40.089Z,-4.10
2022-12-15T17:43:02.752Z,-4.12
2022-12-15T17:45:25.406Z,-4.12
2022-12-15T17:47:48.708Z,-4.13
2022-12-15T17:50:12.153Z,-4.14
2022-12-15T17:52:34.859Z,-4.17
2022-12-15T17:54:57.547Z,-4.17
2022-12-15T17:57:20.340Z,-4.19
2022-12-15T17:59:42.906Z,-4.18
2022-12-15T18:02:05.663Z,-4.16
2022-12-15T18:04:28.565Z,-4.14
2022-12-15T18:06:55.346Z,-4.14
2022-12-15T18:09:23.704Z,-4.14
2022-12-15T18:11:46.935Z,-4.15
2022-12-15T18:14:12.654Z,-4.14
2022-12-15T18:16:35.422Z,-4.15
2022-12-15T18:18:59.661Z,-4.17
2022-12-15T18:21:22.323Z,-4.17
2022-12-15T18:23:46.877Z,-4.19
2022-12-15T18:26:11.506Z,-4.19
2022-12-15T18:28:35.105Z,-4.16
2022-12-15T18:31:00.722Z,-4.14
2022-12-15T18:33:24.732Z,-4.12
2022-12-15T18:35:48.768Z,-4.10
2022-12-15T18:38:16.162Z,-4.09
2022-12-15T18:40:38.890Z,-4.07
2022-12-15T18:43:01.442Z,-4.06
2022-12-15T18:45:26.888Z,-4.07
2022-12-15T18:47:51.406Z,-4.06
2022-12-15T18:50:14.825Z,-4.04
2022-12-15T18:52:37.436Z,-4.04
2022-12-15T18:55:00.922Z,-4.02
2022-12-15T18:57:27.397Z,-4.01
2022-12-15T18:59:50.005Z,-3.99
2022-12-15T19:02:13.013Z,-3.99
2022-12-15T19:04:35.652Z,-3.99
2022-12-15T19:07:05.841Z,-3.99
2022-12-15T19:09:28.792Z,-3.98
2022-12-15T19:12:12.130Z,-3.97
2022-12-15T19:14:40.990Z,-3.96
2022-12-15T19:17:22.016Z,-3.96
2022-12-15T19:19:59.392Z,-3.97
2022-12-15T19:22:29.136Z,-3.94
2022-12-15T19:24:54.993Z,-3.91
2022-12-15T19:27:19.496Z,-3.87
2022-12-15T19:29:44.336Z,-3.84
2022-12-15T19:32:07.633Z,-3.80
2022-12-15T19:34:30.483Z,-3.74
2022-12-15T19:36:53.003Z,-3.69
2022-12-15T19:39:21.049Z,-3.64
2022-12-15T19:41:43.672Z,-3.54
2022-12-15T19:44:09.119Z,-3.49
2022-12-15T19:46:31.943Z,-3.48
2022-12-15T19:48:54.813Z,-3.42
2022-12-15T19:51:18.548Z,-3.42
2022-12-15T19:53:41.238Z,-3.43
2022-12-15T19:56:03.966Z,-3.43
2022-12-15T19:58:30.193Z,-3.43
2022-12-15T20:00:53.383Z,-3.48
2022-12-15T20:03:16.169Z,-3.51
2022-12-15T20:05:39.754Z,-3.54
2022-12-15T20:08:02.367Z,-3.60
2022-12-15T20:10:31.874Z,-3.65
2022-12-15T20:12:55.036Z,-3.67
2022-12-15T20:15:19.494Z,-3.68
2022-12-15T20:17:42.471Z,-3.70
2022-12-15T20:20:05.963Z,-3.71
2022-12-15T20:22:28.559Z,-3.75
2022-12-15T20:24:51.129Z,-3.79
2022-12-15T20:27:14.816Z,-3.81
2022-12-15T20:29:37.532Z,-3.83
2022-12-15T20:32:00.236Z,-3.82
2022-12-15T20:34:23.177Z,-3.81
2022-12-15T20:36:46.998Z,-3.80
2022-12-15T20:39:13.755Z,-3.81
2022-12-15T20:41:36.334Z,-3.81
2022-12-15T20:43:59.027Z,-3.80
2022-12-15T20:46:23.355Z,-3.77
2022-12-15T20:48:46.090Z,-3.76
2022-12-15T20:51:12.627Z,-3.75
2022-12-15T20:53:35.431Z,-3.76
2022-12-15T20:55:58.267Z,-3.78
2022-12-15T20:58:20.970Z,-3.80
2022-12-15T21:00:43.696Z,-3.82
2022-12-15T21:03:20.255Z,-3.84
2022-12-15T21:05:43.523Z,-3.86
2022-12-15T21:08:11.219Z,-3.90
2022-12-15T21:10:33.838Z,-3.93
2022-12-15T21:12:56.570Z,-3.97
2022-12-15T21:15:20.267Z,-3.99
2022-12-15T21:17:43.132Z,-4.03
2022-12-15T21:20:06.691Z,-4.05
2022-12-15T21:22:29.489Z,-4.06
2022-12-15T21:24:53.245Z,-4.07
2022-12-15T21:27:16.152Z,-4.09
2022-12-15T21:29:38.728Z,-4.09
2022-12-15T21:32:01.289Z,-4.10
2022-12-15T21:34:24.092Z,-4.10
2022-12-15T21:36:49.204Z,-4.11
2022-12-15T21:39:15.626Z,-4.11
2022-12-15T21:41:39.912Z,-4.10
2022-12-15T21:44:02.523Z,-4.10
2022-12-15T21:46:28.188Z,-4.11
2022-12-15T21:49:09.871Z,-4.12
2022-12-15T21:51:34.268Z,-4.12
2022-12-15T21:53:56.781Z,-4.13
2022-12-15T21:56:20.876Z,-4.13
2022-12-15T21:58:43.586Z,-4.12
2022-12-15T22:01:09.100Z,-4.10
2022-12-15T22:03:33.207Z,-4.09
2022-12-15T22:05:55.834Z,-4.08
2022-12-15T22:08:19.159Z,-4.06
2022-12-15T22:10:42.041Z,-4.06
2022-12-15T22:13:04.677Z,-4.06
2022-12-15T22:15:28.510Z,-4.06
2022-12-15T22:17:51.189Z,-4.06
2022-12-15T22:20:15.159Z,-4.06
2022-12-15T22:22:37.781Z,-4.06
2022-12-15T22:25:00.282Z,-4.06
2022-12-15T22:27:22.981Z,-4.06
2022-12-15T22:29:46.187Z,-4.04
2022-12-15T22:32:11.203Z,-4.01
2022-12-15T22:34:33.747Z,-3.98
2022-12-15T22:36:56.743Z,-3.93
2022-12-15T22:39:19.572Z,-3.85
2022-12-15T22:41:43.939Z,-3.78
2022-12-15T22:44:13.003Z,-3.72
2022-12-15T22:46:35.753Z,-3.66
2022-12-15T22:48:58.391Z,-3.62
2022-12-15T22:51:20.990Z,-3.58
2022-12-15T22:53:44.125Z,-3.52
2022-12-15T22:56:13.527Z,-3.48
2022-12-15T22:58:38.390Z,-3.50
2022-12-15T23:01:01.445Z,-3.52
2022-12-15T23:03:24.429Z,-3.56
2022-12-15T23:05:47.176Z,-3.61
2022-12-15T23:08:09.740Z,-3.67
2022-12-15T23:10:50.658Z,-3.73
2022-12-15T23:13:13.734Z,-3.80
2022-12-15T23:15:54.908Z,-3.86
2022-12-15T23:18:17.693Z,-3.92
2022-12-15T23:20:40.694Z,-3.99
2022-12-15T23:23:03.195Z,-4.06
2022-12-15T23:25:26.019Z,-4.12
2022-12-15T23:27:48.511Z,-4.16
2022-12-15T23:30:12.363Z,-4.21
2022-12-15T23:32:37.960Z,-4.24
2022-12-15T23:35:00.520Z,-4.26
2022-12-15T23:37:23.092Z,-4.24
2022-12-15T23:39:45.759Z,-4.21
2022-12-15T23:42:10.249Z,-4.19
2022-12-15T23:44:32.812Z,-4.18
2022-12-15T23:46:56.729Z,-4.13
2022-12-15T23:49:19.447Z,-4.12
2022-12-15T23:51:42.214Z,-4.13
2022-12-15T23:54:05.223Z,-4.13
2022-12-15T23:56:27.802Z,-4.13
2022-12-15T23:58:55.311Z,-4.13
